createdAt,value
2023-03-22T00:01:19.878Z,33.25
2023-03-22T00:03:47.744Z,32.72
2023-03-22T00:06:14.897Z,31.98
2023-03-22T00:08:41.869Z,33.15
2023-03-22T00:11:08.909Z,33.33
2023-03-22T00:13:37.332Z,31.45
2023-03-22T00:16:05.589Z,33.75
2023-03-22T00:18:32.447Z,34.55
2023-03-22T00:20:59.868Z,32.75
2023-03-22T00:23:28.233Z,35.25
2023-03-22T00:25:55.510Z,33.30
2023-03-22T00:28:22.784Z,32.72
2023-03-22T00:31:01.155Z,33.03
2023-03-22T00:33:29.199Z,33.90
2023-03-22T00:36:01.626Z,33.25
2023-03-22T00:38:42.536Z,31.95
2023-03-22T00:41:14.427Z,32.65
2023-03-22T00:43:41.828Z,34.60
2023-03-22T00:46:09.798Z,32.55
2023-03-22T00:48:36.628Z,32.95
2023-03-22T00:51:03.932Z,34.20
2023-03-22T00:53:32.933Z,32.92
2023-03-22T00:56:00.272Z,35.88
2023-03-22T00:58:27.147Z,37.33
2023-03-22T01:00:54.061Z,36.10
2023-03-22T01:03:22.026Z,35.42
2023-03-22T01:05:52.198Z,34.97
2023-03-22T01:08:18.963Z,34.95
2023-03-22T01:10:46.120Z,34.03
2023-03-22T01:13:13.343Z,35.47
2023-03-22T01:15:41.295Z,33.47
2023-03-22T01:18:08.852Z,33.40
2023-03-22T01:20:36.584Z,35.10
2023-03-22T01:23:03.977Z,35.00
2023-03-22T01:25:31.026Z,35.30
2023-03-22T01:27:57.998Z,36.03
2023-03-22T01:30:25.000Z,36.42
2023-03-22T01:32:52.059Z,33.53
2023-03-22T01:35:18.956Z,35.22
2023-03-22T01:37:45.906Z,34.33
2023-03-22T01:40:14.051Z,36.25
2023-03-22T01:42:41.128Z,33.60
2023-03-22T01:45:14.003Z,34.30
2023-03-22T01:47:47.697Z,36.65
2023-03-22T01:50:16.655Z,35.58
2023-03-22T01:52:44.170Z,37.13
2023-03-22T01:55:12.552Z,38.72
2023-03-22T01:57:41.132Z,37.53
2023-03-22T02:00:16.017Z,38.03
2023-03-22T02:02:45.724Z,38.08
2023-03-22T02:05:13.187Z,37.90
2023-03-22T02:07:42.473Z,37.95
2023-03-22T02:10:17.707Z,38.53
2023-03-22T02:13:03.313Z,38.58
2023-03-22T02:15:47.089Z,39.15
2023-03-22T02:18:31.120Z,41.00
2023-03-22T02:21:07.902Z,39.28
2023-03-22T02:23:40.588Z,35.42
2023-03-22T02:26:28.370Z,38.72
2023-03-22T02:29:13.999Z,38.17
2023-03-22T02:31:46.675Z,40.00
2023-03-22T02:34:22.457Z,39.63
2023-03-22T02:37:23.274Z,39.85
2023-03-22T02:40:11.409Z,38.70
2023-03-22T02:42:46.520Z,38.13
2023-03-22T02:45:29.099Z,38.95
2023-03-22T02:48:08.374Z,38.83
2023-03-22T02:50:56.586Z,38.85
2023-03-22T02:53:40.867Z,39.47
2023-03-22T02:56:23.275Z,41.10
2023-03-22T02:58:57.311Z,42.55
2023-03-22T03:01:33.198Z,39.75
2023-03-22T03:04:04.879Z,38.30
2023-03-22T03:06:35.862Z,38.50
2023-03-22T03:09:05.243Z,39.75
2023-03-22T03:11:32.480Z,38.20
2023-03-22T03:13:59.467Z,39.25
2023-03-22T03:16:30.790Z,38.53
2023-03-22T03:19:07.883Z,39.05
2023-03-22T03:21:42.579Z,37.15
2023-03-22T03:24:33.647Z,40.55
2023-03-22T03:27:17.797Z,40.92
2023-03-22T03:30:08.464Z,41.72
2023-03-22T03:32:44.396Z,37.05
2023-03-22T03:35:37.727Z,41.13
2023-03-22T03:38:09.946Z,39.00
2023-03-22T03:43:08.827Z,40.78
2023-03-22T03:45:37.387Z,40.28
2023-03-22T03:48:14.841Z,39.95
2023-03-22T03:50:42.445Z,41.65
2023-03-22T03:53:09.302Z,42.67
2023-03-22T03:55:37.721Z,42.83
2023-03-22T03:58:04.553Z,39.15
2023-03-22T04:00:31.432Z,39.97
2023-03-22T04:02:58.213Z,40.97
2023-03-22T04:05:24.946Z,42.00
2023-03-22T04:07:51.722Z,42.42
2023-03-22T04:10:18.530Z,41.33
2023-03-22T04:12:45.370Z,42.40
2023-03-22T04:15:12.888Z,40.42
2023-03-22T04:17:40.375Z,43.17
2023-03-22T04:20:10.889Z,42.17
2023-03-22T04:22:38.806Z,42.72
2023-03-22T04:25:11.692Z,41.10
2023-03-22T04:27:42.690Z,42.42
2023-03-22T04:30:12.381Z,40.88
2023-03-22T04:32:39.358Z,41.95
2023-03-22T04:35:06.391Z,42.50
2023-03-22T04:37:33.741Z,41.75
2023-03-22T04:40:00.660Z,43.92
2023-03-22T04:42:27.476Z,42.67
2023-03-22T04:44:54.228Z,43.15
2023-03-22T04:47:21.010Z,42.90
2023-03-22T04:49:47.777Z,40.85
2023-03-22T04:52:14.634Z,40.10
2023-03-22T04:54:41.565Z,40.72
2023-03-22T04:57:08.369Z,40.35
2023-03-22T04:59:35.299Z,41.50
2023-03-22T05:02:02.129Z,40.20
2023-03-22T05:04:29.046Z,40.92
2023-03-22T05:06:55.935Z,40.60
2023-03-22T05:09:23.632Z,36.95
2023-03-22T05:11:50.506Z,40.22
2023-03-22T05:14:17.395Z,40.17
2023-03-22T05:16:44.162Z,39.42
2023-03-22T05:19:14.091Z,40.20
2023-03-22T05:21:44.261Z,40.33
2023-03-22T05:24:12.285Z,41.67
2023-03-22T05:26:42.213Z,38.40
2023-03-22T05:29:13.589Z,40.85
2023-03-22T05:31:40.447Z,38.47
2023-03-22T05:34:08.117Z,39.83
2023-03-22T05:36:36.554Z,37.80
2023-03-22T05:39:04.141Z,39.45
2023-03-22T05:41:36.361Z,38.85
2023-03-22T05:44:04.247Z,40.75
2023-03-22T05:46:31.160Z,38.10
2023-03-22T05:48:57.998Z,39.22
2023-03-22T05:51:25.949Z,37.58
2023-03-22T05:53:54.510Z,38.78
2023-03-22T05:56:24.273Z,38.60
2023-03-22T05:58:51.733Z,37.63
2023-03-22T06:01:20.485Z,37.55
2023-03-22T06:03:48.571Z,40.33
2023-03-22T06:06:15.819Z,37.17
2023-03-22T06:08:42.885Z,39.00
2023-03-22T06:11:10.409Z,37.83
2023-03-22T06:13:37.544Z,38.25
2023-03-22T06:16:05.698Z,36.97
2023-03-22T06:18:33.257Z,38.40
2023-03-22T06:21:00.531Z,37.63
2023-03-22T06:23:27.867Z,38.30
2023-03-22T06:25:54.674Z,38.30
2023-03-22T06:28:21.518Z,38.45
2023-03-22T06:30:48.310Z,39.78
2023-03-22T06:33:15.390Z,37.45
2023-03-22T06:35:42.199Z,38.75
2023-03-22T06:38:09.541Z,39.63
2023-03-22T06:40:36.493Z,38.20
2023-03-22T06:43:06.835Z,41.60
2023-03-22T06:45:34.260Z,37.83
2023-03-22T06:48:01.534Z,38.30
2023-03-22T06:50:29.421Z,40.63
2023-03-22T06:52:56.721Z,41.28
2023-03-22T06:55:24.018Z,42.10
2023-03-22T06:57:50.834Z,42.75
2023-03-22T07:00:17.914Z,42.42
2023-03-22T07:02:44.900Z,40.80
2023-03-22T07:05:11.715Z,42.85
2023-03-22T07:07:38.572Z,41.00
2023-03-22T07:10:07.790Z,43.25
2023-03-22T07:12:34.678Z,43.72
2023-03-22T07:15:02.265Z,42.50
2023-03-22T07:17:29.203Z,42.88
2023-03-22T07:19:56.024Z,42.03
2023-03-22T07:22:24.966Z,42.30
2023-03-22T07:24:57.194Z,41.05
2023-03-22T07:27:24.934Z,40.13
2023-03-22T07:29:51.873Z,38.60
2023-03-22T07:32:18.798Z,41.15
2023-03-22T07:34:45.677Z,38.65
2023-03-22T07:37:12.517Z,40.13
2023-03-22T07:39:39.386Z,39.95
2023-03-22T07:42:06.824Z,38.95
2023-03-22T07:44:33.722Z,38.25
2023-03-22T07:47:00.749Z,38.30
2023-03-22T07:49:27.882Z,37.60
2023-03-22T07:51:54.826Z,39.95
2023-03-22T07:54:33.036Z,37.80
2023-03-22T07:57:01.714Z,38.63
2023-03-22T07:59:28.736Z,39.42
2023-03-22T08:01:55.719Z,39.03
2023-03-22T08:04:23.217Z,38.42
2023-03-22T08:06:51.390Z,39.30
2023-03-22T08:09:18.777Z,38.47
2023-03-22T08:11:45.731Z,36.55
2023-03-22T08:14:12.573Z,38.10
2023-03-22T08:16:39.557Z,37.03
2023-03-22T08:19:06.684Z,36.55
2023-03-22T08:21:33.534Z,36.75
2023-03-22T08:24:00.384Z,39.97
2023-03-22T08:26:28.681Z,34.95
2023-03-22T08:28:56.240Z,34.90
2023-03-22T08:31:23.413Z,35.85
2023-03-22T08:33:50.387Z,36.67
2023-03-22T08:36:22.902Z,36.63
2023-03-22T08:38:50.408Z,35.80
2023-03-22T08:41:17.361Z,36.50
2023-03-22T08:43:44.174Z,40.38
2023-03-22T08:46:11.325Z,38.15
2023-03-22T08:48:38.596Z,35.97
2023-03-22T08:51:06.735Z,36.22
2023-03-22T08:53:33.719Z,38.80
2023-03-22T08:56:02.488Z,41.25
2023-03-22T08:58:29.343Z,38.17
2023-03-22T09:00:56.187Z,39.13
2023-03-22T09:03:24.844Z,39.78
2023-03-22T09:05:51.869Z,38.13
2023-03-22T09:08:19.813Z,38.88
2023-03-22T09:10:52.006Z,40.60
2023-03-22T09:13:19.727Z,45.33
2023-03-22T09:15:47.051Z,41.92
2023-03-22T09:18:14.670Z,45.05
2023-03-22T09:20:41.838Z,43.28
2023-03-22T09:23:08.889Z,44.30
2023-03-22T09:25:35.837Z,41.25
2023-03-22T09:28:04.125Z,40.05
2023-03-22T09:30:31.271Z,39.97
2023-03-22T09:32:58.110Z,38.95
2023-03-22T09:35:25.029Z,40.28
2023-03-22T09:37:54.416Z,41.03
2023-03-22T09:40:29.615Z,38.42
2023-03-22T09:42:59.757Z,39.40
2023-03-22T09:45:41.030Z,39.60
2023-03-22T09:48:26.728Z,38.92
2023-03-22T09:50:54.894Z,38.80
2023-03-22T09:53:24.604Z,40.25
2023-03-22T09:56:03.539Z,39.53
2023-03-22T09:58:56.038Z,39.38
2023-03-22T10:01:39.485Z,38.05
2023-03-22T10:04:12.643Z,38.50
2023-03-22T10:06:42.472Z,39.20
2023-03-22T10:09:32.139Z,38.58
2023-03-22T10:12:08.500Z,37.83
2023-03-22T10:14:38.294Z,37.17
2023-03-22T10:17:14.739Z,39.67
2023-03-22T10:20:02.337Z,38.38
2023-03-22T10:22:36.520Z,38.90
2023-03-22T10:25:06.612Z,38.22
2023-03-22T10:27:36.043Z,38.03
2023-03-22T10:30:40.081Z,37.30
2023-03-22T10:33:18.976Z,39.15
2023-03-22T10:35:46.499Z,37.25
2023-03-22T10:38:23.311Z,36.75
2023-03-22T10:40:51.596Z,39.30
2023-03-22T10:43:39.292Z,36.20
2023-03-22T10:46:14.335Z,37.28
2023-03-22T10:48:53.561Z,36.25
2023-03-22T10:51:44.048Z,36.80
2023-03-22T10:54:14.859Z,37.42
2023-03-22T10:56:41.930Z,38.17
2023-03-22T10:59:11.952Z,37.53
2023-03-22T11:01:46.028Z,36.92
2023-03-22T11:04:16.418Z,36.80
2023-03-22T11:06:52.757Z,35.90
2023-03-22T11:09:23.607Z,36.63
2023-03-22T11:11:56.567Z,36.72
2023-03-22T11:14:31.566Z,35.72
2023-03-22T11:17:02.502Z,36.75
2023-03-22T11:19:58.154Z,36.50
2023-03-22T11:22:35.825Z,35.63
2023-03-22T11:25:07.128Z,34.75
2023-03-22T11:27:34.486Z,36.10
2023-03-22T11:30:27.256Z,35.90
2023-03-22T11:33:09.353Z,33.75
2023-03-22T11:35:38.812Z,35.75
2023-03-22T11:38:05.742Z,34.92
2023-03-22T11:40:35.556Z,33.53
2023-03-22T11:43:21.222Z,33.17
2023-03-22T11:45:53.420Z,33.17
2023-03-22T11:48:27.132Z,31.83
2023-03-22T11:50:58.477Z,30.83
2023-03-22T11:53:27.566Z,30.48
2023-03-22T11:55:57.642Z,29.50
2023-03-22T11:58:43.678Z,29.27
2023-03-22T12:01:17.337Z,29.23
2023-03-22T12:03:47.860Z,30.33
2023-03-22T12:06:25.373Z,30.20
2023-03-22T12:09:39.877Z,27.33
2023-03-22T12:12:13.877Z,28.42
2023-03-22T12:15:19.430Z,29.33
2023-03-22T12:17:51.895Z,29.85
2023-03-22T12:20:21.476Z,29.98
2023-03-22T12:22:52.733Z,29.90
2023-03-22T12:25:33.795Z,27.90
2023-03-22T12:28:14.379Z,27.93
2023-03-22T12:30:44.993Z,30.02
2023-03-22T12:33:37.815Z,30.55
2023-03-22T12:36:07.076Z,29.27
2023-03-22T12:38:39.712Z,29.25
2023-03-22T12:41:12.372Z,31.42
2023-03-22T12:44:01.102Z,29.60
2023-03-22T12:46:35.720Z,28.50
2023-03-22T12:49:05.011Z,29.15
2023-03-22T12:51:31.840Z,28.90
2023-03-22T13:23:27.047Z,27.63
2023-03-22T13:26:03.184Z,29.02
2023-03-22T13:28:36.965Z,27.50
2023-03-22T13:31:04.847Z,25.98
2023-03-22T13:33:37.035Z,29.58
2023-03-22T13:36:25.592Z,28.42
2023-03-22T13:39:03.070Z,29.80
2023-03-22T13:41:32.797Z,27.83
2023-03-22T13:44:02.381Z,25.77
2023-03-22T13:46:45.534Z,25.38
2023-03-22T13:49:28.769Z,26.15
2023-03-22T13:52:00.688Z,26.38
2023-03-22T13:54:42.425Z,27.00
2023-03-22T13:57:47.672Z,27.70
2023-03-22T14:00:20.805Z,27.75
2023-03-22T14:02:50.120Z,27.63
2023-03-22T14:05:22.445Z,25.23
2023-03-22T14:07:56.266Z,25.98
2023-03-22T14:11:07.380Z,26.77
2023-03-22T14:13:43.845Z,24.85
2023-03-22T14:16:32.776Z,25.05
2023-03-22T14:19:00.069Z,24.35
